sensor_id;sensor_type;location;lat;lon;timestamp;P1;durP1;ratioP1;P2;durP2;ratioP2
8665;SDS011;4370;48.916;8.380;2022-08-21T00:00:51;1.90;;;1.70;;
8665;SDS011;4370;48.916;8.380;2022-08-21T00:03:17;1.77;;;1.53;;
8665;SDS011;4370;48.916;8.380;2022-08-21T00:05:47;4.27;;;2.10;;
8665;SDS011;4370;48.916;8.380;2022-08-21T00:08:14;3.93;;;2.00;;
8665;SDS011;4370;48.916;8.380;2022-08-21T00:10:40;2.40;;;1.83;;
8665;SDS011;4370;48.916;8.380;2022-08-21T00:13:06;2.30;;;2.10;;
8665;SDS011;4370;48.916;8.380;2022-08-21T00:15:33;2.40;;;2.03;;
8665;SDS011;4370;48.916;8.380;2022-08-21T00:18:00;3.17;;;1.90;;
8665;SDS011;4370;48.916;8.380;2022-08-21T00:20:26;3.90;;;2.40;;
8665;SDS011;4370;48.916;8.380;2022-08-21T00:22:52;1.90;;;1.70;;
8665;SDS011;4370;48.916;8.380;2022-08-21T00:25:18;4.77;;;2.60;;
8665;SDS011;4370;48.916;8.380;2022-08-21T00:27:44;2.30;;;1.90;;
8665;SDS011;4370;48.916;8.380;2022-08-21T00:30:12;3.53;;;2.30;;
8665;SDS011;4370;48.916;8.380;2022-08-21T00:32:40;4.20;;;2.27;;
8665;SDS011;4370;48.916;8.380;2022-08-21T00:35:06;3.50;;;1.90;;
8665;SDS011;4370;48.916;8.380;2022-08-21T00:37:34;3.57;;;2.20;;
8665;SDS011;4370;48.916;8.380;2022-08-21T00:40:00;2.37;;;2.10;;
8665;SDS011;4370;48.916;8.380;2022-08-21T00:42:27;2.37;;;2.17;;
8665;SDS011;4370;48.916;8.380;2022-08-21T00:44:55;3.93;;;2.10;;
8665;SDS011;4370;48.916;8.380;2022-08-21T00:47:21;2.90;;;1.87;;
8665;SDS011;4370;48.916;8.380;2022-08-21T00:49:47;2.93;;;2.10;;
8665;SDS011;4370;48.916;8.380;2022-08-21T00:52:14;2.97;;;2.37;;
8665;SDS011;4370;48.916;8.380;2022-08-21T00:54:43;3.10;;;2.50;;
8665;SDS011;4370;48.916;8.380;2022-08-21T00:57:12;4.33;;;2.50;;
8665;SDS011;4370;48.916;8.380;2022-08-21T00:59:42;2.53;;;2.23;;
8665;SDS011;4370;48.916;8.380;2022-08-21T01:02:11;3.43;;;2.17;;
8665;SDS011;4370;48.916;8.380;2022-08-21T01:04:37;2.63;;;1.83;;
8665;SDS011;4370;48.916;8.380;2022-08-21T01:07:03;3.17;;;2.00;;
8665;SDS011;4370;48.916;8.380;2022-08-21T01:09:29;2.53;;;2.10;;
8665;SDS011;4370;48.916;8.380;2022-08-21T01:11:55;2.30;;;2.10;;
8665;SDS011;4370;48.916;8.380;2022-08-21T01:14:21;3.60;;;2.23;;
8665;SDS011;4370;48.916;8.380;2022-08-21T01:16:48;2.67;;;2.07;;
8665;SDS011;4370;48.916;8.380;2022-08-21T01:19:16;2.30;;;2.10;;
8665;SDS011;4370;48.916;8.380;2022-08-21T01:21:43;3.87;;;2.37;;
8665;SDS011;4370;48.916;8.380;2022-08-21T01:24:10;2.73;;;2.30;;
8665;SDS011;4370;48.916;8.380;2022-08-21T01:26:36;3.33;;;2.20;;
8665;SDS011;4370;48.916;8.380;2022-08-21T01:31:34;3.10;;;2.23;;
8665;SDS011;4370;48.916;8.380;2022-08-21T01:34:02;2.53;;;2.23;;
8665;SDS011;4370;48.916;8.380;2022-08-21T01:36:29;3.07;;;2.30;;
8665;SDS011;4370;48.916;8.380;2022-08-21T01:38:55;2.57;;;2.37;;
8665;SDS011;4370;48.916;8.380;2022-08-21T01:41:21;3.13;;;2.43;;
8665;SDS011;4370;48.916;8.380;2022-08-21T01:43:47;3.10;;;2.43;;
8665;SDS011;4370;48.916;8.380;2022-08-21T01:46:13;3.60;;;2.47;;
8665;SDS011;4370;48.916;8.380;2022-08-21T01:48:39;2.73;;;2.30;;
8665;SDS011;4370;48.916;8.380;2022-08-21T01:51:05;2.90;;;2.30;;
8665;SDS011;4370;48.916;8.380;2022-08-21T01:53:31;2.97;;;2.47;;
8665;SDS011;4370;48.916;8.380;2022-08-21T01:56:00;3.97;;;2.40;;
8665;SDS011;4370;48.916;8.380;2022-08-21T01:58:26;3.13;;;2.63;;
8665;SDS011;4370;48.916;8.380;2022-08-21T02:00:52;3.37;;;2.40;;
8665;SDS011;4370;48.916;8.380;2022-08-21T02:03:17;3.50;;;2.50;;
8665;SDS011;4370;48.916;8.380;2022-08-21T02:05:43;4.07;;;2.70;;
8665;SDS011;4370;48.916;8.380;2022-08-21T02:08:09;3.37;;;2.67;;
8665;SDS011;4370;48.916;8.380;2022-08-21T02:10:37;5.33;;;2.90;;
8665;SDS011;4370;48.916;8.380;2022-08-21T02:13:03;4.30;;;2.90;;
8665;SDS011;4370;48.916;8.380;2022-08-21T02:15:29;3.10;;;2.43;;
8665;SDS011;4370;48.916;8.380;2022-08-21T02:17:57;3.63;;;2.80;;
8665;SDS011;4370;48.916;8.380;2022-08-21T02:22:51;5.90;;;2.73;;
8665;SDS011;4370;48.916;8.380;2022-08-21T02:25:18;2.60;;;2.40;;
8665;SDS011;4370;48.916;8.380;2022-08-21T02:27:46;5.00;;;2.30;;
8665;SDS011;4370;48.916;8.380;2022-08-21T02:30:14;4.20;;;2.50;;
8665;SDS011;4370;48.916;8.380;2022-08-21T02:32:46;2.67;;;2.30;;
8665;SDS011;4370;48.916;8.380;2022-08-21T02:35:13;3.80;;;2.63;;
8665;SDS011;4370;48.916;8.380;2022-08-21T02:37:44;4.13;;;2.80;;
8665;SDS011;4370;48.916;8.380;2022-08-21T02:40:17;3.40;;;2.93;;
8665;SDS011;4370;48.916;8.380;2022-08-21T02:42:45;4.13;;;2.83;;
8665;SDS011;4370;48.916;8.380;2022-08-21T02:45:12;6.17;;;2.80;;
8665;SDS011;4370;48.916;8.380;2022-08-21T02:47:39;3.73;;;2.90;;
8665;SDS011;4370;48.916;8.380;2022-08-21T02:50:05;5.20;;;3.13;;
8665;SDS011;4370;48.916;8.380;2022-08-21T02:52:32;5.17;;;2.87;;
8665;SDS011;4370;48.916;8.380;2022-08-21T02:54:59;5.93;;;2.87;;
8665;SDS011;4370;48.916;8.380;2022-08-21T02:57:25;4.37;;;2.90;;
8665;SDS011;4370;48.916;8.380;2022-08-21T02:59:50;4.07;;;2.67;;
8665;SDS011;4370;48.916;8.380;2022-08-21T03:02:16;4.17;;;2.77;;
8665;SDS011;4370;48.916;8.380;2022-08-21T03:04:42;3.50;;;2.60;;
8665;SDS011;4370;48.916;8.380;2022-08-21T03:07:08;3.27;;;2.90;;
8665;SDS011;4370;48.916;8.380;2022-08-21T03:09:35;3.77;;;2.70;;
8665;SDS011;4370;48.916;8.380;2022-08-21T03:12:02;3.60;;;2.90;;
8665;SDS011;4370;48.916;8.380;2022-08-21T03:14:30;2.70;;;2.40;;
8665;SDS011;4370;48.916;8.380;2022-08-21T03:16:56;3.33;;;2.70;;
8665;SDS011;4370;48.916;8.380;2022-08-21T03:19:21;3.70;;;2.97;;
8665;SDS011;4370;48.916;8.380;2022-08-21T03:21:47;3.43;;;2.70;;
8665;SDS011;4370;48.916;8.380;2022-08-21T03:24:15;4.17;;;2.83;;
8665;SDS011;4370;48.916;8.380;2022-08-21T03:26:42;2.90;;;2.70;;
8665;SDS011;4370;48.916;8.380;2022-08-21T03:29:09;3.30;;;3.00;;
8665;SDS011;4370;48.916;8.380;2022-08-21T03:31:36;4.23;;;2.90;;
8665;SDS011;4370;48.916;8.380;2022-08-21T03:34:04;3.57;;;3.07;;
8665;SDS011;4370;48.916;8.380;2022-08-21T03:36:30;3.40;;;2.90;;
8665;SDS011;4370;48.916;8.380;2022-08-21T03:38:57;4.10;;;3.10;;
8665;SDS011;4370;48.916;8.380;2022-08-21T03:41:22;3.50;;;3.20;;
8665;SDS011;4370;48.916;8.380;2022-08-21T03:43:48;3.13;;;2.60;;
8665;SDS011;4370;48.916;8.380;2022-08-21T03:46:16;2.80;;;2.60;;
8665;SDS011;4370;48.916;8.380;2022-08-21T03:48:43;5.60;;;3.10;;
8665;SDS011;4370;48.916;8.380;2022-08-21T03:51:09;3.13;;;2.67;;
8665;SDS011;4370;48.916;8.380;2022-08-21T03:53:35;6.43;;;3.20;;
8665;SDS011;4370;48.916;8.380;2022-08-21T03:56:01;4.17;;;3.30;;
8665;SDS011;4370;48.916;8.380;2022-08-21T03:58:29;4.83;;;3.20;;
8665;SDS011;4370;48.916;8.380;2022-08-21T04:00:57;4.47;;;2.90;;
8665;SDS011;4370;48.916;8.380;2022-08-21T04:03:24;3.73;;;2.87;;
8665;SDS011;4370;48.916;8.380;2022-08-21T04:05:50;3.10;;;2.63;;
8665;SDS011;4370;48.916;8.380;2022-08-21T04:08:16;3.13;;;2.73;;
8665;SDS011;4370;48.916;8.380;2022-08-21T04:10:43;4.60;;;3.40;;
8665;SDS011;4370;48.916;8.380;2022-08-21T04:13:11;6.00;;;3.70;;
8665;SDS011;4370;48.916;8.380;2022-08-21T04:15:37;4.50;;;3.00;;
8665;SDS011;4370;48.916;8.380;2022-08-21T04:18:03;4.73;;;3.47;;
8665;SDS011;4370;48.916;8.380;2022-08-21T04:20:29;8.60;;;3.23;;
8665;SDS011;4370;48.916;8.380;2022-08-21T04:22:55;4.40;;;3.20;;
8665;SDS011;4370;48.916;8.380;2022-08-21T04:25:22;4.27;;;2.80;;
8665;SDS011;4370;48.916;8.380;2022-08-21T04:27:48;5.00;;;3.07;;
8665;SDS011;4370;48.916;8.380;2022-08-21T04:30:14;5.57;;;2.90;;
8665;SDS011;4370;48.916;8.380;2022-08-21T04:32:46;3.87;;;3.10;;
8665;SDS011;4370;48.916;8.380;2022-08-21T04:35:14;6.03;;;3.27;;
8665;SDS011;4370;48.916;8.380;2022-08-21T04:37:41;4.27;;;3.20;;
8665;SDS011;4370;48.916;8.380;2022-08-21T04:40:08;6.93;;;3.57;;
8665;SDS011;4370;48.916;8.380;2022-08-21T04:42:58;6.17;;;3.40;;
8665;SDS011;4370;48.916;8.380;2022-08-21T04:45:30;3.57;;;3.03;;
8665;SDS011;4370;48.916;8.380;2022-08-21T04:47:59;4.60;;;3.27;;
8665;SDS011;4370;48.916;8.380;2022-08-21T04:50:28;3.90;;;3.43;;
8665;SDS011;4370;48.916;8.380;2022-08-21T04:53:00;4.67;;;3.27;;
8665;SDS011;4370;48.916;8.380;2022-08-21T04:55:28;4.70;;;3.30;;
8665;SDS011;4370;48.916;8.380;2022-08-21T04:57:55;3.90;;;3.10;;
8665;SDS011;4370;48.916;8.380;2022-08-21T05:00:22;6.00;;;3.33;;
8665;SDS011;4370;48.916;8.380;2022-08-21T05:02:49;6.10;;;3.70;;
8665;SDS011;4370;48.916;8.380;2022-08-21T05:05:21;3.87;;;3.20;;
8665;SDS011;4370;48.916;8.380;2022-08-21T05:07:48;5.70;;;3.70;;
8665;SDS011;4370;48.916;8.380;2022-08-21T05:10:14;6.07;;;3.43;;
8665;SDS011;4370;48.916;8.380;2022-08-21T05:12:41;7.87;;;4.10;;
8665;SDS011;4370;48.916;8.380;2022-08-21T05:15:08;8.17;;;3.73;;
8665;SDS011;4370;48.916;8.380;2022-08-21T05:17:34;7.07;;;3.97;;
8665;SDS011;4370;48.916;8.380;2022-08-21T05:20:00;4.63;;;2.90;;
8665;SDS011;4370;48.916;8.380;2022-08-21T05:22:26;6.60;;;3.43;;
8665;SDS011;4370;48.916;8.380;2022-08-21T05:24:52;5.90;;;3.67;;
8665;SDS011;4370;48.916;8.380;2022-08-21T05:27:18;5.87;;;3.30;;
8665;SDS011;4370;48.916;8.380;2022-08-21T05:29:44;4.83;;;2.90;;
8665;SDS011;4370;48.916;8.380;2022-08-21T05:32:11;5.07;;;3.10;;
8665;SDS011;4370;48.916;8.380;2022-08-21T05:34:38;4.80;;;2.97;;
8665;SDS011;4370;48.916;8.380;2022-08-21T05:37:04;3.00;;;2.70;;
8665;SDS011;4370;48.916;8.380;2022-08-21T05:39:30;4.30;;;3.07;;
8665;SDS011;4370;48.916;8.380;2022-08-21T05:41:56;4.87;;;2.97;;
8665;SDS011;4370;48.916;8.380;2022-08-21T05:44:24;4.73;;;2.87;;
8665;SDS011;4370;48.916;8.380;2022-08-21T05:46:50;3.27;;;2.70;;
8665;SDS011;4370;48.916;8.380;2022-08-21T05:49:17;3.30;;;2.70;;
8665;SDS011;4370;48.916;8.380;2022-08-21T05:51:44;5.13;;;2.97;;
8665;SDS011;4370;48.916;8.380;2022-08-21T05:54:10;2.80;;;2.60;;
8665;SDS011;4370;48.916;8.380;2022-08-21T05:56:36;3.83;;;2.80;;
8665;SDS011;4370;48.916;8.380;2022-08-21T05:59:02;3.20;;;2.90;;
8665;SDS011;4370;48.916;8.380;2022-08-21T06:01:28;3.37;;;2.50;;
8665;SDS011;4370;48.916;8.380;2022-08-21T06:03:53;3.00;;;2.50;;
8665;SDS011;4370;48.916;8.380;2022-08-21T06:06:19;4.10;;;2.60;;
8665;SDS011;4370;48.916;8.380;2022-08-21T06:08:45;4.53;;;2.90;;
8665;SDS011;4370;48.916;8.380;2022-08-21T06:11:11;4.33;;;2.70;;
8665;SDS011;4370;48.916;8.380;2022-08-21T06:13:37;5.03;;;2.40;;
8665;SDS011;4370;48.916;8.380;2022-08-21T06:16:08;5.63;;;2.57;;
8665;SDS011;4370;48.916;8.380;2022-08-21T06:18:37;4.30;;;1.97;;
8665;SDS011;4370;48.916;8.380;2022-08-21T06:21:04;4.83;;;2.40;;
8665;SDS011;4370;48.916;8.380;2022-08-21T06:23:29;4.60;;;2.60;;
8665;SDS011;4370;48.916;8.380;2022-08-21T06:25:55;6.80;;;2.40;;
8665;SDS011;4370;48.916;8.380;2022-08-21T06:28:21;3.83;;;2.15;;
8665;SDS011;4370;48.916;8.380;2022-08-21T06:30:47;4.53;;;2.30;;
8665;SDS011;4370;48.916;8.380;2022-08-21T06:33:13;5.80;;;2.67;;
8665;SDS011;4370;48.916;8.380;2022-08-21T06:35:39;4.57;;;2.28;;
8665;SDS011;4370;48.916;8.380;2022-08-21T06:38:04;3.28;;;2.10;;
8665;SDS011;4370;48.916;8.380;2022-08-21T06:40:31;4.25;;;2.42;;
8665;SDS011;4370;48.916;8.380;2022-08-21T06:42:58;3.35;;;1.90;;
8665;SDS011;4370;48.916;8.380;2022-08-21T06:45:34;4.03;;;2.13;;
8665;SDS011;4370;48.916;8.380;2022-08-21T06:48:01;5.25;;;2.30;;
8665;SDS011;4370;48.916;8.380;2022-08-21T06:50:28;4.25;;;2.40;;
8665;SDS011;4370;48.916;8.380;2022-08-21T06:53:04;3.63;;;2.10;;
8665;SDS011;4370;48.916;8.380;2022-08-21T06:55:38;6.30;;;2.38;;
8665;SDS011;4370;48.916;8.380;2022-08-21T06:58:04;4.15;;;2.40;;
8665;SDS011;4370;48.916;8.380;2022-08-21T07:00:31;7.97;;;2.00;;
8665;SDS011;4370;48.916;8.380;2022-08-21T07:02:57;6.55;;;2.50;;
8665;SDS011;4370;48.916;8.380;2022-08-21T07:05:25;3.08;;;2.20;;
8665;SDS011;4370;48.916;8.380;2022-08-21T07:07:52;4.18;;;2.42;;
8665;SDS011;4370;48.916;8.380;2022-08-21T07:10:18;6.72;;;2.40;;
8665;SDS011;4370;48.916;8.380;2022-08-21T07:12:44;4.05;;;2.50;;
8665;SDS011;4370;48.916;8.380;2022-08-21T07:15:09;3.70;;;2.25;;
8665;SDS011;4370;48.916;8.380;2022-08-21T07:17:35;3.17;;;2.17;;
8665;SDS011;4370;48.916;8.380;2022-08-21T07:20:01;6.07;;;2.50;;
8665;SDS011;4370;48.916;8.380;2022-08-21T07:22:28;4.88;;;2.40;;
8665;SDS011;4370;48.916;8.380;2022-08-21T07:24:54;4.82;;;2.55;;
8665;SDS011;4370;48.916;8.380;2022-08-21T07:27:20;6.35;;;2.38;;
8665;SDS011;4370;48.916;8.380;2022-08-21T07:29:45;4.05;;;2.30;;
8665;SDS011;4370;48.916;8.380;2022-08-21T07:32:11;4.07;;;2.20;;
8665;SDS011;4370;48.916;8.380;2022-08-21T07:34:37;5.32;;;2.25;;
8665;SDS011;4370;48.916;8.380;2022-08-21T07:37:03;4.13;;;1.98;;
8665;SDS011;4370;48.916;8.380;2022-08-21T07:39:29;4.53;;;2.28;;
8665;SDS011;4370;48.916;8.380;2022-08-21T07:41:54;5.75;;;2.58;;
8665;SDS011;4370;48.916;8.380;2022-08-21T07:44:20;4.30;;;2.42;;
8665;SDS011;4370;48.916;8.380;2022-08-21T07:46:45;4.13;;;2.63;;
8665;SDS011;4370;48.916;8.380;2022-08-21T07:49:11;3.78;;;2.42;;
8665;SDS011;4370;48.916;8.380;2022-08-21T07:51:36;6.90;;;2.50;;
8665;SDS011;4370;48.916;8.380;2022-08-21T07:54:03;5.68;;;2.50;;
8665;SDS011;4370;48.916;8.380;2022-08-21T07:56:29;3.92;;;2.50;;
8665;SDS011;4370;48.916;8.380;2022-08-21T07:58:57;5.72;;;2.60;;
8665;SDS011;4370;48.916;8.380;2022-08-21T08:01:23;3.67;;;2.30;;
8665;SDS011;4370;48.916;8.380;2022-08-21T08:03:49;5.85;;;2.22;;
8665;SDS011;4370;48.916;8.380;2022-08-21T08:06:15;3.83;;;2.35;;
8665;SDS011;4370;48.916;8.380;2022-08-21T08:08:44;4.55;;;2.50;;
8665;SDS011;4370;48.916;8.380;2022-08-21T08:11:10;5.68;;;2.50;;
8665;SDS011;4370;48.916;8.380;2022-08-21T08:13:38;3.95;;;2.20;;
8665;SDS011;4370;48.916;8.380;2022-08-21T08:16:11;3.85;;;2.20;;
8665;SDS011;4370;48.916;8.380;2022-08-21T08:18:37;5.82;;;3.00;;
8665;SDS011;4370;48.916;8.380;2022-08-21T08:21:04;4.63;;;2.40;;
8665;SDS011;4370;48.916;8.380;2022-08-21T08:23:30;5.78;;;2.45;;
8665;SDS011;4370;48.916;8.380;2022-08-21T08:25:57;6.07;;;2.60;;
8665;SDS011;4370;48.916;8.380;2022-08-21T08:28:23;4.72;;;2.45;;
8665;SDS011;4370;48.916;8.380;2022-08-21T08:30:49;5.20;;;2.70;;
8665;SDS011;4370;48.916;8.380;2022-08-21T08:33:16;4.57;;;2.85;;
8665;SDS011;4370;48.916;8.380;2022-08-21T08:35:42;5.32;;;2.50;;
8665;SDS011;4370;48.916;8.380;2022-08-21T08:38:11;3.75;;;2.60;;
8665;SDS011;4370;48.916;8.380;2022-08-21T08:40:44;6.80;;;3.00;;
8665;SDS011;4370;48.916;8.380;2022-08-21T08:43:16;6.65;;;2.60;;
8665;SDS011;4370;48.916;8.380;2022-08-21T08:45:43;4.97;;;2.72;;
8665;SDS011;4370;48.916;8.380;2022-08-21T08:48:14;3.70;;;2.60;;
8665;SDS011;4370;48.916;8.380;2022-08-21T08:50:56;5.50;;;2.72;;
8665;SDS011;4370;48.916;8.380;2022-08-21T08:53:30;5.47;;;2.80;;
8665;SDS011;4370;48.916;8.380;2022-08-21T08:56:10;6.18;;;2.53;;
8665;SDS011;4370;48.916;8.380;2022-08-21T08:58:37;5.03;;;2.67;;
8665;SDS011;4370;48.916;8.380;2022-08-21T09:01:11;5.55;;;2.65;;
8665;SDS011;4370;48.916;8.380;2022-08-21T09:03:42;6.05;;;2.85;;
8665;SDS011;4370;48.916;8.380;2022-08-21T09:08:53;6.93;;;3.45;;
8665;SDS011;4370;48.916;8.380;2022-08-21T09:11:29;3.80;;;2.30;;
8665;SDS011;4370;48.916;8.380;2022-08-21T09:14:06;5.63;;;2.83;;
8665;SDS011;4370;48.916;8.380;2022-08-21T09:16:50;5.80;;;2.83;;
8665;SDS011;4370;48.916;8.380;2022-08-21T09:22:31;4.50;;;2.60;;
8665;SDS011;4370;48.916;8.380;2022-08-21T09:25:33;3.97;;;2.57;;
8665;SDS011;4370;48.916;8.380;2022-08-21T09:28:08;4.30;;;2.67;;
8665;SDS011;4370;48.916;8.380;2022-08-21T09:30:37;6.57;;;3.10;;
8665;SDS011;4370;48.916;8.380;2022-08-21T09:33:05;5.07;;;2.70;;
8665;SDS011;4370;48.916;8.380;2022-08-21T09:35:31;4.30;;;2.53;;
8665;SDS011;4370;48.916;8.380;2022-08-21T09:40:40;6.47;;;2.80;;
8665;SDS011;4370;48.916;8.380;2022-08-21T09:45:36;5.40;;;2.67;;
8665;SDS011;4370;48.916;8.380;2022-08-21T09:48:07;5.17;;;3.00;;
8665;SDS011;4370;48.916;8.380;2022-08-21T09:50:38;4.47;;;2.70;;
8665;SDS011;4370;48.916;8.380;2022-08-21T09:53:03;5.13;;;2.77;;
8665;SDS011;4370;48.916;8.380;2022-08-21T09:55:32;4.30;;;2.58;;
8665;SDS011;4370;48.916;8.380;2022-08-21T09:58:34;6.55;;;2.58;;
8665;SDS011;4370;48.916;8.380;2022-08-21T10:01:03;8.48;;;2.70;;
8665;SDS011;4370;48.916;8.380;2022-08-21T10:03:30;7.87;;;2.77;;
8665;SDS011;4370;48.916;8.380;2022-08-21T10:05:57;8.77;;;3.10;;
8665;SDS011;4370;48.916;8.380;2022-08-21T10:08:26;5.13;;;2.60;;
8665;SDS011;4370;48.916;8.380;2022-08-21T10:10:57;6.67;;;2.80;;
8665;SDS011;4370;48.916;8.380;2022-08-21T10:24:52;6.00;;;2.85;;
8665;SDS011;4370;48.916;8.380;2022-08-21T10:27:26;7.78;;;2.88;;
8665;SDS011;4370;48.916;8.380;2022-08-21T10:30:00;4.45;;;2.72;;
8665;SDS011;4370;48.916;8.380;2022-08-21T10:35:13;4.80;;;2.55;;
8665;SDS011;4370;48.916;8.380;2022-08-21T10:40:28;6.22;;;2.17;;
8665;SDS011;4370;48.916;8.380;2022-08-21T10:51:33;6.88;;;2.60;;
8665;SDS011;4370;48.916;8.380;2022-08-21T10:56:35;4.82;;;2.65;;
8665;SDS011;4370;48.916;8.380;2022-08-21T11:01:49;6.30;;;2.85;;
8665;SDS011;4370;48.916;8.380;2022-08-21T11:04:39;5.22;;;2.67;;
8665;SDS011;4370;48.916;8.380;2022-08-21T11:07:22;4.70;;;2.75;;
8665;SDS011;4370;48.916;8.380;2022-08-21T11:09:56;4.43;;;2.70;;
8665;SDS011;4370;48.916;8.380;2022-08-21T11:12:27;6.00;;;2.63;;
8665;SDS011;4370;48.916;8.380;2022-08-21T11:15:02;7.53;;;2.60;;
8665;SDS011;4370;48.916;8.380;2022-08-21T11:17:42;5.60;;;2.72;;
8665;SDS011;4370;48.916;8.380;2022-08-21T11:20:40;7.18;;;2.80;;
8665;SDS011;4370;48.916;8.380;2022-08-21T11:23:16;4.47;;;2.50;;
8665;SDS011;4370;48.916;8.380;2022-08-21T11:25:51;2.70;;;2.40;;
8665;SDS011;4370;48.916;8.380;2022-08-21T11:30:56;4.82;;;2.58;;
8665;SDS011;4370;48.916;8.380;2022-08-21T11:36:14;6.35;;;2.72;;
8665;SDS011;4370;48.916;8.380;2022-08-21T11:39:06;6.80;;;2.70;;
8665;SDS011;4370;48.916;8.380;2022-08-21T11:42:08;4.00;;;2.40;;
8665;SDS011;4370;48.916;8.380;2022-08-21T11:44:56;6.18;;;2.65;;
8665;SDS011;4370;48.916;8.380;2022-08-21T11:47:45;5.90;;;2.53;;
8665;SDS011;4370;48.916;8.380;2022-08-21T11:50:20;4.57;;;2.50;;
8665;SDS011;4370;48.916;8.380;2022-08-21T11:53:04;4.25;;;2.40;;
8665;SDS011;4370;48.916;8.380;2022-08-21T11:55:53;6.63;;;2.50;;
8665;SDS011;4370;48.916;8.380;2022-08-21T11:58:25;4.10;;;2.40;;
8665;SDS011;4370;48.916;8.380;2022-08-21T12:01:35;4.85;;;2.63;;
8665;SDS011;4370;48.916;8.380;2022-08-21T12:04:10;3.85;;;2.58;;
8665;SDS011;4370;48.916;8.380;2022-08-21T12:06:52;5.25;;;2.58;;
8665;SDS011;4370;48.916;8.380;2022-08-21T12:12:00;5.38;;;2.45;;
8665;SDS011;4370;48.916;8.380;2022-08-21T12:14:36;6.95;;;2.45;;
8665;SDS011;4370;48.916;8.380;2022-08-21T12:17:08;5.60;;;2.47;;
8665;SDS011;4370;48.916;8.380;2022-08-21T12:19:41;6.43;;;2.15;;
8665;SDS011;4370;48.916;8.380;2022-08-21T12:22:08;3.25;;;2.03;;
8665;SDS011;4370;48.916;8.380;2022-08-21T12:25:02;4.93;;;2.35;;
8665;SDS011;4370;48.916;8.380;2022-08-21T12:28:31;4.65;;;2.35;;
8665;SDS011;4370;48.916;8.380;2022-08-21T12:30:43;4.00;;;2.20;;
8665;SDS011;4370;48.916;8.380;2022-08-21T12:33:21;4.22;;;2.40;;
8665;SDS011;4370;48.916;8.380;2022-08-21T12:36:00;4.07;;;2.25;;
8665;SDS011;4370;48.916;8.380;2022-08-21T12:38:49;6.10;;;2.50;;
8665;SDS011;4370;48.916;8.380;2022-08-21T12:41:28;4.15;;;2.40;;
8665;SDS011;4370;48.916;8.380;2022-08-21T12:44:00;3.90;;;2.22;;
8665;SDS011;4370;48.916;8.380;2022-08-21T12:46:37;4.75;;;2.13;;
8665;SDS011;4370;48.916;8.380;2022-08-21T12:49:12;5.05;;;2.28;;
8665;SDS011;4370;48.916;8.380;2022-08-21T12:51:48;6.20;;;2.58;;
8665;SDS011;4370;48.916;8.380;2022-08-21T12:54:31;5.45;;;2.63;;
8665;SDS011;4370;48.916;8.380;2022-08-21T12:57:03;4.25;;;2.30;;
8665;SDS011;4370;48.916;8.380;2022-08-21T12:59:31;3.80;;;2.00;;
8665;SDS011;4370;48.916;8.380;2022-08-21T13:01:59;6.20;;;2.58;;
8665;SDS011;4370;48.916;8.380;2022-08-21T13:04:37;3.42;;;2.45;;
8665;SDS011;4370;48.916;8.380;2022-08-21T13:07:15;3.42;;;2.30;;
8665;SDS011;4370;48.916;8.380;2022-08-21T13:09:53;4.50;;;2.67;;
8665;SDS011;4370;48.916;8.380;2022-08-21T13:12:25;5.05;;;2.42;;
8665;SDS011;4370;48.916;8.380;2022-08-21T13:14:55;5.05;;;2.75;;
8665;SDS011;4370;48.916;8.380;2022-08-21T13:17:22;4.35;;;2.40;;
8665;SDS011;4370;48.916;8.380;2022-08-21T13:19:56;5.15;;;2.50;;
8665;SDS011;4370;48.916;8.380;2022-08-21T13:22:23;3.60;;;2.45;;
8665;SDS011;4370;48.916;8.380;2022-08-21T13:24:50;5.50;;;2.47;;
8665;SDS011;4370;48.916;8.380;2022-08-21T13:27:21;3.78;;;2.58;;
8665;SDS011;4370;48.916;8.380;2022-08-21T13:30:13;5.35;;;2.53;;
8665;SDS011;4370;48.916;8.380;2022-08-21T13:32:44;4.03;;;2.15;;
8665;SDS011;4370;48.916;8.380;2022-08-21T13:35:16;4.90;;;2.35;;
8665;SDS011;4370;48.916;8.380;2022-08-21T13:37:45;5.63;;;2.80;;
8665;SDS011;4370;48.916;8.380;2022-08-21T13:40:14;3.08;;;2.30;;
8665;SDS011;4370;48.916;8.380;2022-08-21T13:42:44;6.07;;;2.50;;
8665;SDS011;4370;48.916;8.380;2022-08-21T13:45:15;7.07;;;2.65;;
8665;SDS011;4370;48.916;8.380;2022-08-21T13:47:48;6.80;;;2.53;;
8665;SDS011;4370;48.916;8.380;2022-08-21T13:50:14;5.82;;;2.60;;
8665;SDS011;4370;48.916;8.380;2022-08-21T13:53:19;4.13;;;2.20;;
8665;SDS011;4370;48.916;8.380;2022-08-21T13:55:52;4.47;;;2.50;;
8665;SDS011;4370;48.916;8.380;2022-08-21T13:58:41;5.95;;;2.70;;
8665;SDS011;4370;48.916;8.380;2022-08-21T14:01:20;6.75;;;2.58;;
8665;SDS011;4370;48.916;8.380;2022-08-21T14:03:47;3.92;;;2.53;;
8665;SDS011;4370;48.916;8.380;2022-08-21T14:06:16;5.57;;;2.88;;
8665;SDS011;4370;48.916;8.380;2022-08-21T14:08:56;4.20;;;2.58;;
8665;SDS011;4370;48.916;8.380;2022-08-21T14:11:25;4.05;;;2.63;;
8665;SDS011;4370;48.916;8.380;2022-08-21T14:16:26;2.97;;;2.28;;
8665;SDS011;4370;48.916;8.380;2022-08-21T14:21:32;5.07;;;2.42;;
8665;SDS011;4370;48.916;8.380;2022-08-21T14:24:05;4.85;;;2.50;;
8665;SDS011;4370;48.916;8.380;2022-08-21T14:26:45;5.00;;;2.55;;
8665;SDS011;4370;48.916;8.380;2022-08-21T14:29:16;5.13;;;2.40;;
8665;SDS011;4370;48.916;8.380;2022-08-21T14:31:48;3.70;;;2.33;;
8665;SDS011;4370;48.916;8.380;2022-08-21T14:34:24;3.88;;;2.40;;
8665;SDS011;4370;48.916;8.380;2022-08-21T14:36:52;4.35;;;2.40;;
8665;SDS011;4370;48.916;8.380;2022-08-21T14:39:19;4.15;;;2.58;;
8665;SDS011;4370;48.916;8.380;2022-08-21T14:41:45;4.93;;;2.95;;
8665;SDS011;4370;48.916;8.380;2022-08-21T14:44:13;5.25;;;2.50;;
8665;SDS011;4370;48.916;8.380;2022-08-21T14:46:40;8.93;;;2.20;;
8665;SDS011;4370;48.916;8.380;2022-08-21T14:49:06;4.13;;;2.35;;
8665;SDS011;4370;48.916;8.380;2022-08-21T14:51:32;4.20;;;2.40;;
8665;SDS011;4370;48.916;8.380;2022-08-21T14:53:58;4.22;;;2.20;;
8665;SDS011;4370;48.916;8.380;2022-08-21T14:56:24;4.40;;;2.30;;
8665;SDS011;4370;48.916;8.380;2022-08-21T14:58:51;5.30;;;2.60;;
8665;SDS011;4370;48.916;8.380;2022-08-21T15:01:18;4.65;;;2.40;;
8665;SDS011;4370;48.916;8.380;2022-08-21T15:03:46;5.28;;;2.63;;
8665;SDS011;4370;48.916;8.380;2022-08-21T15:06:13;4.25;;;2.33;;
8665;SDS011;4370;48.916;8.380;2022-08-21T15:08:40;4.35;;;2.67;;
8665;SDS011;4370;48.916;8.380;2022-08-21T15:11:06;3.90;;;2.28;;
8665;SDS011;4370;48.916;8.380;2022-08-21T15:13:35;6.18;;;2.65;;
8665;SDS011;4370;48.916;8.380;2022-08-21T15:16:01;4.85;;;2.17;;
8665;SDS011;4370;48.916;8.380;2022-08-21T15:18:28;3.97;;;2.47;;
8665;SDS011;4370;48.916;8.380;2022-08-21T15:20:55;6.13;;;2.67;;
8665;SDS011;4370;48.916;8.380;2022-08-21T15:23:21;5.22;;;2.58;;
8665;SDS011;4370;48.916;8.380;2022-08-21T15:25:47;2.85;;;2.33;;
8665;SDS011;4370;48.916;8.380;2022-08-21T15:28:14;3.10;;;2.33;;
8665;SDS011;4370;48.916;8.380;2022-08-21T15:30:42;4.88;;;2.40;;
8665;SDS011;4370;48.916;8.380;2022-08-21T15:33:09;6.18;;;2.75;;
8665;SDS011;4370;48.916;8.380;2022-08-21T15:35:35;3.85;;;2.58;;
8665;SDS011;4370;48.916;8.380;2022-08-21T15:38:01;3.30;;;2.30;;
8665;SDS011;4370;48.916;8.380;2022-08-21T15:40:27;4.85;;;2.70;;
8665;SDS011;4370;48.916;8.380;2022-08-21T15:42:56;4.47;;;2.40;;
8665;SDS011;4370;48.916;8.380;2022-08-21T15:45:24;3.63;;;2.58;;
8665;SDS011;4370;48.916;8.380;2022-08-21T15:47:51;3.90;;;2.40;;
8665;SDS011;4370;48.916;8.380;2022-08-21T15:50:17;3.47;;;2.50;;
8665;SDS011;4370;48.916;8.380;2022-08-21T15:52:44;3.42;;;2.20;;
8665;SDS011;4370;48.916;8.380;2022-08-21T15:55:10;5.18;;;2.33;;
8665;SDS011;4370;48.916;8.380;2022-08-21T15:57:36;2.95;;;2.33;;
8665;SDS011;4370;48.916;8.380;2022-08-21T16:00:17;3.72;;;2.50;;
8665;SDS011;4370;48.916;8.380;2022-08-21T16:02:48;5.28;;;2.80;;
8665;SDS011;4370;48.916;8.380;2022-08-21T16:05:16;3.25;;;2.13;;
8665;SDS011;4370;48.916;8.380;2022-08-21T16:07:42;2.90;;;2.38;;
8665;SDS011;4370;48.916;8.380;2022-08-21T16:10:09;3.70;;;2.30;;
8665;SDS011;4370;48.916;8.380;2022-08-21T16:12:36;3.58;;;2.45;;
8665;SDS011;4370;48.916;8.380;2022-08-21T16:15:09;5.13;;;2.55;;
8665;SDS011;4370;48.916;8.380;2022-08-21T16:17:38;3.40;;;2.42;;
8665;SDS011;4370;48.916;8.380;2022-08-21T16:20:08;5.10;;;2.22;;
8665;SDS011;4370;48.916;8.380;2022-08-21T16:22:36;5.47;;;2.65;;
8665;SDS011;4370;48.916;8.380;2022-08-21T16:25:02;4.63;;;2.58;;
8665;SDS011;4370;48.916;8.380;2022-08-21T16:27:29;4.47;;;2.45;;
8665;SDS011;4370;48.916;8.380;2022-08-21T16:29:54;5.10;;;2.55;;